Impacts METAR Board
IDs:

KORD - Chicago/O'Hare Intl, IL, US

Updated at: 0600 UTC 20 Oct 2018
Potential Impact None Slight Moderate High
Time 19/18Z 19/19Z 19/20Z 19/21Z 19/22Z 19/23Z 20/00Z 20/01Z 20/02Z 20/03Z 20/04Z 20/05Z 20/06Z
Temp50 51 52 52 51 51 52 54 54 54 53 51 50
Dewpt43 44 44 46 48 48 48 48 49 49 49 48 46
Altim29.96 29.92 29.88 29.85 29.84 29.83 29.82 29.82 29.82 29.83 29.84 29.84 29.85
VIS10 10 10 10 4 10 10 10 10 10 10 10 10
CIG60 60 41 16 11 10 31 -- 49 -- -- -- --
CoverOVCOVCOVCBKNOVCOVCOVCSCTBKNSCTFEWCLRCLR
FltCatVFRVFRVFRMVFRMVFRMVFRVFRVFRVFRVFRVFRVFRVFR
WX-RA---RA--BR---DZ------------
WDir210210220210220230220230240250250250250
WSpd12 14 10 13 14 11 12 15 10 10 8 6 7
WGst-- 21 21 22 25 23 21 21 18 -- -- -- --
Raw hourly METARs
KORD 191751Z 21012KT 10SM -RA OVC060 10/06 A2996 RMK AO2 SLP147 P0001 60001 T01000061 10111 20083 58039
KORD 191851Z 21014G21KT 10SM SCT049 BKN060 OVC080 11/07 A2992 RMK AO2 RAE31 SLP134 P0002 T01060067
KORD 191951Z 22010G21KT 10SM -RA BKN041 OVC055 11/07 A2988 RMK AO2 RAB1852E24B45 SLP118 P0000 T01110067
KORD 192051Z 21013G22KT 10SM BKN016 BKN020 BKN070 11/08 A2985 RMK AO2 PK WND 22028/2030 RAE1955 SLP108 P0000 60002 T01110078 56024
KORD 192151Z 22014G25KT 4SM BR BKN011 OVC013 11/09 A2984 RMK AO2 PK WND 23026/2104 RAB40E50 SLP105 P0000 T01060089
KORD 192251Z 23011G23KT 10SM BKN010 OVC014 11/09 A2983 RMK AO2 SLP103 T01060089
KORD 192351Z 22012G21KT 10SM -DZ FEW012 BKN031 OVC040 11/09 A2982 RMK AO2 DZB22 SLP100 P0000 60002 T01110089 10111 20100 56008
KORD 200051Z 23015G21KT 10SM FEW018 SCT045 12/09 A2982 RMK AO2 DZE40 SLP100 P0000 T01220089
KORD 200151Z 24010G18KT 10SM SCT041 BKN049 12/09 A2982 RMK AO2 SLP100 T01220094
KORD 200251Z 25010KT 10SM SCT023 SCT050 12/09 A2983 RMK AO2 SLP103 60000 T01220094 53003
KORD 200351Z 25008KT 10SM FEW070 12/09 A2984 RMK AO2 SLP105 T01170094
KORD 200451Z 25006KT 10SM CLR 11/09 A2984 RMK AO2 SLP107 T01060089
KORD 200551Z 25007KT 10SM CLR 10/08 A2985 RMK AO2 SLP109 60000 T01000078 10122 20100 401220078 51005



Page loaded:  06:08 UTC  |   11:08 PM Pacific  |   12:08 AM Mountain  |   01:08 AM Central  |   02:08 AM Eastern

 

ADVISORIES

FORECASTS

FORECASTS

OBSERVATIONS

USER TOOLS

ABOUT US